Murray City, OH (43144)

8:28 PM EDT on April 25, 2015 (GMT -0400)
Whitlind Woods | | Change Station
CLOSE
Current Station
Personal Weather Station
Location: Athens, OH
Elevation: 713 ft
Nearby Weather Stations

Elev 713 ft 39.31 °N, 82.16 °W | Updated 30 seconds ago

Overcast
Overcast
44.4 °F
Feels Like 44 °F
N
0.0
Wind Variable Wind from SSE
Gusts 2.0 mph

Today
High -- | Low -- °F
--% Chance of Precip.
Yesterday
High -- | Low -- °F
Precip. -- in
6:37 AM 8:16 PM
Waxing Crescent, 50% visible
Pressure 29.67 in
Visibility 10.0 miles
Clouds Overcast 1100 ft
Windchill 44 °F
Dew Point 43 °F
Humidity 94%
Rainfall 0.42 in
Snow Depth Not available.
UV 0 out of 12
Pollen 8.20 out of 12
Air Quality Not available.
Flu Activity Regional
METAR KUNI 260015Z AUTO 05008KT 10SM OVC011 06/05 A2967 RMK AO2 P0001 T00620046

More Conditions Fewer Conditions

Pressure 29.67 in
Visibility 10.0 miles
Clouds Overcast 1100 ft
Windchill 44 °F
Dew Point 43 °F
Humidity 94%
Rainfall 0.42 in
Snow Depth Not available.
UV 0 out of 12
Pollen 8.20 out of 12
Air Quality Not available.
Flu Activity Regional
METAR KUNI 260015Z AUTO 05008KT 10SM OVC011 06/05 A2967 RMK AO2 P0001 T00620046

More Conditions Fewer Conditions

10-Day Weather Forecast

Almanac

Astronomy

Apr. 25, 2015 Rise Set
Actual Time
Civil Twilight
Nautical Twilight
Astronomical Twilight
Moon
Length of Visible Light
Length of Day
Tomorrow will be .
, % of the Moon is Illuminated

Today's Extremes

State Highs State Lows

Community

WunderPhotos

Upload Photos

1,816,856 photos uploaded!

WunderBlogs® & News

Nearby

Air Quality

  Air Quality AQ Index Pollutant
Not available.

Snow Depth

Station Depth Elevation

Earthquake Activity

City Distance Mag. Time & Date
Minimum magnitude displayed is 2.5.

Coastal Water Temperatures

Place Temperature

Stations

Nearby Weather Stations

Station Location Temp. Windchill Dew Point Humidity Wind Precip. Elev Updated Type